createdAt,value
2023-02-17T00:01:25.051Z,37.72
2023-02-17T00:03:53.274Z,38.25
2023-02-17T00:06:22.963Z,39.33
2023-02-17T00:08:50.135Z,37.45
2023-02-17T00:11:17.529Z,37.50
2023-02-17T00:13:44.684Z,39.83
2023-02-17T00:16:19.333Z,39.78
2023-02-17T00:18:46.721Z,34.88
2023-02-17T00:21:19.195Z,38.13
2023-02-17T00:23:47.658Z,37.10
2023-02-17T00:26:15.699Z,35.70
2023-02-17T00:28:42.681Z,36.33
2023-02-17T00:31:11.939Z,37.15
2023-02-17T00:33:39.115Z,37.85
2023-02-17T00:36:07.635Z,35.88
2023-02-17T00:38:35.087Z,33.65
2023-02-17T00:41:01.789Z,34.90
2023-02-17T00:43:28.542Z,36.30
2023-02-17T00:45:55.804Z,34.63
2023-02-17T00:48:22.800Z,36.42
2023-02-17T00:50:49.712Z,40.22
2023-02-17T00:53:16.483Z,40.85
2023-02-17T00:55:43.100Z,38.70
2023-02-17T00:58:09.963Z,39.08
2023-02-17T01:00:37.034Z,40.53
2023-02-17T01:03:03.907Z,39.08
2023-02-17T01:05:30.856Z,43.50
2023-02-17T01:07:57.507Z,42.28
2023-02-17T01:10:24.204Z,40.47
2023-02-17T01:12:51.145Z,39.40
2023-02-17T01:15:17.857Z,39.58
2023-02-17T01:17:44.465Z,38.88
2023-02-17T01:20:11.513Z,39.78
2023-02-17T01:22:39.834Z,41.72
2023-02-17T01:25:06.749Z,37.53
2023-02-17T01:27:33.871Z,42.95
2023-02-17T01:30:00.465Z,39.65
2023-02-17T01:44:20.809Z,42.05
2023-02-17T01:46:49.911Z,38.67
2023-02-17T01:49:22.596Z,37.58
2023-02-17T01:51:55.374Z,35.97
2023-02-17T01:54:30.398Z,34.88
2023-02-17T01:56:59.909Z,36.08
2023-02-17T01:59:28.415Z,34.90
2023-02-17T02:01:58.909Z,34.47
2023-02-17T02:04:31.871Z,35.40
2023-02-17T02:06:58.928Z,34.83
2023-02-17T02:09:35.661Z,34.97
2023-02-17T02:12:02.684Z,35.03
2023-02-17T02:14:29.746Z,35.42
2023-02-17T02:17:26.828Z,36.72
2023-02-17T02:20:21.687Z,37.05
2023-02-17T02:23:10.072Z,35.00
2023-02-17T02:26:12.187Z,35.33
2023-02-17T02:28:55.796Z,35.78
2023-02-17T02:31:44.874Z,35.50
2023-02-17T02:34:23.841Z,33.53
2023-02-17T02:37:07.532Z,34.95
2023-02-17T02:39:42.319Z,34.05
2023-02-17T02:42:14.781Z,34.47
2023-02-17T02:44:41.545Z,34.53
2023-02-17T02:47:39.183Z,33.95
2023-02-17T02:50:06.624Z,34.17
2023-02-17T02:53:12.063Z,35.45
2023-02-17T02:55:53.300Z,34.00
2023-02-17T02:58:28.010Z,34.17
2023-02-17T03:01:34.319Z,30.60
2023-02-17T03:04:16.224Z,32.50
2023-02-17T03:06:56.996Z,33.08
2023-02-17T03:09:27.946Z,32.78
2023-02-17T03:11:58.781Z,32.45
2023-02-17T03:14:25.392Z,33.33
2023-02-17T03:16:52.602Z,34.38
2023-02-17T03:19:23.663Z,36.28
2023-02-17T03:22:16.243Z,34.35
2023-02-17T03:24:42.863Z,34.15
2023-02-17T03:27:09.464Z,33.00
2023-02-17T03:29:36.167Z,34.53
2023-02-17T03:32:02.946Z,33.35
2023-02-17T03:34:29.594Z,33.47
2023-02-17T03:36:56.346Z,33.70
2023-02-17T03:39:23.247Z,33.53
2023-02-17T03:41:51.699Z,33.53
2023-02-17T03:44:19.700Z,34.30
2023-02-17T03:46:46.997Z,35.75
2023-02-17T03:49:13.657Z,34.72
2023-02-17T03:51:40.588Z,33.08
2023-02-17T03:54:07.390Z,32.20
2023-02-17T03:56:33.963Z,34.78
2023-02-17T03:59:00.621Z,33.08
2023-02-17T04:01:27.437Z,34.80
2023-02-17T04:03:54.182Z,35.42
2023-02-17T04:06:21.070Z,32.47
2023-02-17T04:08:48.028Z,34.63
2023-02-17T04:11:14.630Z,33.22
2023-02-17T04:13:41.258Z,35.45
2023-02-17T04:16:10.019Z,35.28
2023-02-17T04:18:37.317Z,33.72
2023-02-17T04:21:05.074Z,32.50
2023-02-17T04:23:31.744Z,32.53
2023-02-17T04:25:58.649Z,32.92
2023-02-17T04:28:26.423Z,33.47
2023-02-17T04:30:53.176Z,32.38
2023-02-17T04:33:19.800Z,32.08
2023-02-17T04:35:47.999Z,30.83
2023-02-17T04:38:14.743Z,32.00
2023-02-17T04:40:41.849Z,33.03
2023-02-17T04:43:09.396Z,32.20
2023-02-17T04:45:37.593Z,33.00
2023-02-17T04:48:04.589Z,32.92
2023-02-17T04:50:31.433Z,35.50
2023-02-17T04:52:58.163Z,32.42
2023-02-17T04:55:24.745Z,40.42
2023-02-17T04:57:51.498Z,39.72
2023-02-17T05:00:18.553Z,42.47
2023-02-17T05:02:45.194Z,39.03
2023-02-17T05:05:15.272Z,46.53
2023-02-17T05:07:46.542Z,50.97
2023-02-17T05:10:19.449Z,49.35
2023-02-17T05:12:46.207Z,46.63
2023-02-17T05:15:13.308Z,40.78
2023-02-17T05:17:40.499Z,40.38
2023-02-17T05:20:08.132Z,38.00
2023-02-17T05:22:34.734Z,37.67
2023-02-17T05:25:01.404Z,35.97
2023-02-17T05:27:28.098Z,34.08
2023-02-17T05:29:54.784Z,35.15
2023-02-17T05:32:23.240Z,37.08
2023-02-17T05:34:50.041Z,34.92
2023-02-17T05:37:16.776Z,31.38
2023-02-17T05:39:43.542Z,32.83
2023-02-17T05:42:10.382Z,34.17
2023-02-17T05:44:37.021Z,37.72
2023-02-17T05:47:03.919Z,39.13
2023-02-17T05:49:30.536Z,33.60
2023-02-17T05:51:57.139Z,35.33
2023-02-17T05:54:23.753Z,33.90
2023-02-17T05:56:50.509Z,34.42
2023-02-17T05:59:17.194Z,32.63
2023-02-17T06:01:44.182Z,34.22
2023-02-17T06:04:10.958Z,33.95
2023-02-17T06:06:37.958Z,32.58
2023-02-17T06:09:04.618Z,35.05
2023-02-17T06:11:31.241Z,34.13
2023-02-17T06:13:57.845Z,34.38
2023-02-17T06:16:24.753Z,33.63
2023-02-17T06:18:51.382Z,37.85
2023-02-17T06:21:18.028Z,34.13
2023-02-17T06:23:44.667Z,34.83
2023-02-17T06:26:11.390Z,36.72
2023-02-17T06:28:38.011Z,35.47
2023-02-17T06:31:04.870Z,34.95
2023-02-17T06:33:31.865Z,35.03
2023-02-17T06:35:58.496Z,33.22
2023-02-17T06:38:25.198Z,34.35
2023-02-17T06:40:53.588Z,37.60
2023-02-17T06:43:20.724Z,36.05
2023-02-17T06:45:47.867Z,39.08
2023-02-17T06:48:14.551Z,52.90
2023-02-17T06:50:41.410Z,55.22
2023-02-17T06:53:08.199Z,58.92
2023-02-17T06:55:37.265Z,64.45
2023-02-17T06:58:03.947Z,51.38
2023-02-17T07:00:30.634Z,53.03
2023-02-17T07:02:57.507Z,53.42
2023-02-17T07:05:24.288Z,54.70
2023-02-17T07:07:53.362Z,56.70
2023-02-17T07:10:20.567Z,55.78
2023-02-17T07:12:47.290Z,49.22
2023-02-17T07:15:14.979Z,49.08
2023-02-17T07:17:41.648Z,47.25
2023-02-17T07:20:09.417Z,49.88
2023-02-17T07:22:36.138Z,53.13
2023-02-17T07:25:03.103Z,47.17
2023-02-17T07:27:29.820Z,47.40
2023-02-17T07:29:56.502Z,44.65
2023-02-17T07:32:23.385Z,40.72
2023-02-17T07:34:50.004Z,44.13
2023-02-17T07:37:16.723Z,42.05
2023-02-17T07:39:43.489Z,45.03
2023-02-17T07:42:10.158Z,41.55
2023-02-17T07:44:36.991Z,43.53
2023-02-17T07:47:04.211Z,42.33
2023-02-17T07:49:30.911Z,39.53
2023-02-17T07:51:57.676Z,42.00
2023-02-17T07:54:24.615Z,43.17
2023-02-17T07:56:51.204Z,41.25
2023-02-17T07:59:18.003Z,37.25
2023-02-17T08:01:44.683Z,36.22
2023-02-17T08:04:11.372Z,37.60
2023-02-17T08:06:40.212Z,37.25
2023-02-17T08:09:25.431Z,35.92
2023-02-17T08:12:10.690Z,34.75
2023-02-17T08:14:38.407Z,34.22
2023-02-17T08:17:06.605Z,33.20
2023-02-17T08:19:46.991Z,34.03
2023-02-17T08:22:16.306Z,32.70
2023-02-17T08:24:42.949Z,34.90
2023-02-17T08:27:09.563Z,34.55
2023-02-17T08:29:36.314Z,36.00
2023-02-17T08:32:03.353Z,34.30
2023-02-17T08:34:33.723Z,33.33
2023-02-17T08:37:05.254Z,33.22
2023-02-17T08:39:32.509Z,35.17
2023-02-17T08:41:59.477Z,33.53
2023-02-17T08:44:26.916Z,32.70
2023-02-17T08:46:54.032Z,32.67
2023-02-17T08:49:23.850Z,31.15
2023-02-17T08:51:51.900Z,31.95
2023-02-17T08:54:18.686Z,31.92
2023-02-17T08:56:45.442Z,33.63
2023-02-17T08:59:14.691Z,36.75
2023-02-17T09:01:42.779Z,36.33
2023-02-17T09:04:11.743Z,36.67
2023-02-17T09:06:47.614Z,37.45
2023-02-17T09:09:17.369Z,33.55
2023-02-17T09:11:44.567Z,39.47
2023-02-17T09:14:11.768Z,41.53
2023-02-17T09:16:40.450Z,42.03
2023-02-17T09:19:08.211Z,42.42
2023-02-17T09:21:34.838Z,43.85
2023-02-17T09:24:01.561Z,37.63
2023-02-17T09:26:28.270Z,39.13
2023-02-17T09:28:55.157Z,35.58
2023-02-17T09:31:25.752Z,35.30
2023-02-17T09:33:52.946Z,36.00
2023-02-17T09:36:24.597Z,37.40
2023-02-17T09:38:51.767Z,36.45
2023-02-17T09:41:23.284Z,36.97
2023-02-17T09:43:55.070Z,38.72
2023-02-17T09:46:33.253Z,40.72
2023-02-17T09:49:08.115Z,45.15
2023-02-17T09:51:43.746Z,44.25
2023-02-17T09:54:23.844Z,46.70
2023-02-17T09:56:52.847Z,45.80
2023-02-17T09:59:24.607Z,42.70
2023-02-17T10:01:52.463Z,41.33
2023-02-17T10:04:37.448Z,42.97
2023-02-17T10:07:29.442Z,42.88
2023-02-17T10:10:04.515Z,40.25
2023-02-17T10:12:38.661Z,40.03
2023-02-17T10:17:57.547Z,40.13
2023-02-17T10:20:38.101Z,37.50
2023-02-17T10:23:10.903Z,35.47
2023-02-17T10:25:46.897Z,36.53
2023-02-17T10:28:43.117Z,35.60
2023-02-17T10:31:20.541Z,37.08
2023-02-17T10:34:22.183Z,34.05
2023-02-17T10:37:03.312Z,36.83
2023-02-17T10:39:39.049Z,36.08
2023-02-17T10:42:07.317Z,36.13
2023-02-17T10:44:37.890Z,36.72
2023-02-17T10:47:05.246Z,34.53
2023-02-17T10:49:36.407Z,36.00
2023-02-17T10:52:12.033Z,36.72
2023-02-17T10:55:23.290Z,34.67
2023-02-17T10:57:57.608Z,35.92
2023-02-17T11:00:25.191Z,34.67
2023-02-17T11:02:52.464Z,33.97
2023-02-17T11:05:34.176Z,34.70
2023-02-17T11:08:06.660Z,33.22
2023-02-17T11:10:35.541Z,32.75
2023-02-17T11:13:04.542Z,35.40
2023-02-17T11:15:43.370Z,32.60
2023-02-17T11:18:18.420Z,35.72
2023-02-17T11:20:45.632Z,35.28
2023-02-17T11:23:15.490Z,34.70
2023-02-17T11:25:44.051Z,35.42
2023-02-17T11:28:24.091Z,34.13
2023-02-17T11:30:53.938Z,32.92
2023-02-17T11:33:33.305Z,35.45
2023-02-17T11:36:01.199Z,34.63
2023-02-17T11:38:33.785Z,37.30
2023-02-17T11:41:04.766Z,34.83
2023-02-17T11:43:33.150Z,35.70
2023-02-17T11:46:09.765Z,36.85
2023-02-17T11:49:06.212Z,35.90
2023-02-17T11:51:51.751Z,35.67
2023-02-17T11:54:35.205Z,34.08
2023-02-17T11:57:41.303Z,34.25
2023-02-17T12:00:22.844Z,34.17
2023-02-17T12:03:10.312Z,33.05
2023-02-17T12:06:08.609Z,33.80
2023-02-17T12:08:47.954Z,33.60
2023-02-17T12:11:47.064Z,33.42
2023-02-17T12:14:32.162Z,31.67
2023-02-17T12:17:09.911Z,34.97
2023-02-17T12:19:46.103Z,31.27
2023-02-17T12:22:20.903Z,30.65
2023-02-17T12:25:15.271Z,30.83
2023-02-17T12:28:12.360Z,29.20
2023-02-17T12:31:01.451Z,29.50
2023-02-17T12:33:52.702Z,29.48
2023-02-17T12:36:19.975Z,30.92
2023-02-17T12:39:22.733Z,30.17
2023-02-17T12:41:55.798Z,31.92
2023-02-17T12:44:46.304Z,30.65
2023-02-17T12:47:21.154Z,31.05
2023-02-17T12:50:04.089Z,31.35
2023-02-17T12:52:44.806Z,32.83
2023-02-17T12:55:20.565Z,32.50
2023-02-17T12:57:58.484Z,33.30
2023-02-17T13:00:39.370Z,31.85
2023-02-17T13:03:08.396Z,30.40
2023-02-17T13:05:43.118Z,32.47
2023-02-17T13:08:24.829Z,30.95
2023-02-17T13:11:04.179Z,31.05
2023-02-17T13:13:33.501Z,34.20
2023-02-17T13:16:11.289Z,31.80
2023-02-17T13:18:43.236Z,34.78
2023-02-17T13:21:18.752Z,35.55
2023-02-17T13:24:13.625Z,34.92
2023-02-17T13:29:10.789Z,32.08
2023-02-17T13:32:04.893Z,32.83
2023-02-17T13:34:39.471Z,31.58
2023-02-17T13:37:35.702Z,31.52
2023-02-17T13:40:29.846Z,30.27
2023-02-17T13:43:14.398Z,32.67
2023-02-17T13:48:34.103Z,30.00
2023-02-17T13:51:03.333Z,32.30
2023-02-17T13:53:38.681Z,34.92
2023-02-17T13:56:09.540Z,36.13
2023-02-17T13:58:39.663Z,34.45
2023-02-17T14:01:13.800Z,33.88
2023-02-17T14:06:19.808Z,31.33
2023-02-17T14:08:46.836Z,32.65
2023-02-17T14:11:17.169Z,33.03
2023-02-17T14:13:46.919Z,32.00
2023-02-17T14:16:46.330Z,33.08
2023-02-17T14:19:15.552Z,32.03
2023-02-17T14:21:45.929Z,33.50
2023-02-17T14:24:35.449Z,32.60
2023-02-17T14:27:09.412Z,32.60
2023-02-17T14:29:44.606Z,31.83
2023-02-17T14:32:30.094Z,31.15
2023-02-17T14:35:06.862Z,31.83
2023-02-17T14:37:37.100Z,33.63
2023-02-17T14:40:16.568Z,34.15
2023-02-17T14:42:43.540Z,31.63
2023-02-17T14:45:10.255Z,32.40
2023-02-17T14:47:37.025Z,32.78
2023-02-17T14:50:04.090Z,31.80
2023-02-17T14:52:30.738Z,33.28
2023-02-17T14:55:00.459Z,34.33
2023-02-17T14:57:28.093Z,34.08
2023-02-17T14:59:57.642Z,34.28
2023-02-17T15:02:25.181Z,33.75
2023-02-17T15:04:51.955Z,34.53
2023-02-17T15:07:19.348Z,33.92
2023-02-17T15:09:48.197Z,33.13
2023-02-17T15:12:17.974Z,33.97
2023-02-17T15:14:46.953Z,33.22
2023-02-17T15:17:14.421Z,36.03
2023-02-17T15:19:44.027Z,33.83
2023-02-17T15:22:20.237Z,35.12
2023-02-17T15:24:47.227Z,36.25
2023-02-17T15:27:15.151Z,35.00
2023-02-17T15:29:42.037Z,44.85
2023-02-17T15:32:18.892Z,45.97
2023-02-17T15:34:46.505Z,43.63
2023-02-17T15:37:13.549Z,48.15
2023-02-17T15:39:40.171Z,50.75
2023-02-17T15:42:13.764Z,44.13
2023-02-17T15:44:46.887Z,41.38
2023-02-17T15:47:17.668Z,45.67
2023-02-17T15:49:45.115Z,55.20
2023-02-17T15:52:13.849Z,51.97
2023-02-17T15:54:43.992Z,49.70
2023-02-17T15:57:25.046Z,48.72
2023-02-17T15:59:55.088Z,35.90
2023-02-17T16:02:23.680Z,36.58
2023-02-17T16:04:50.622Z,35.10
2023-02-17T16:07:17.631Z,34.03
2023-02-17T16:09:44.356Z,31.90
2023-02-17T16:12:17.988Z,30.85
2023-02-17T16:14:45.259Z,31.45
2023-02-17T16:17:16.580Z,31.33
2023-02-17T16:19:43.611Z,28.70
2023-02-17T16:22:10.480Z,28.52
2023-02-17T16:24:37.491Z,28.85
2023-02-17T16:27:08.364Z,28.38
2023-02-17T16:29:35.956Z,26.27
2023-02-17T16:32:02.850Z,26.50
2023-02-17T16:34:32.442Z,26.77
2023-02-17T16:37:03.243Z,30.00
2023-02-17T16:39:30.233Z,28.08
2023-02-17T16:41:56.939Z,34.08
2023-02-17T16:44:24.037Z,29.88
2023-02-17T16:46:53.704Z,29.55
2023-02-17T16:49:28.411Z,29.15
2023-02-17T16:51:55.056Z,26.92
2023-02-17T16:54:21.710Z,29.30
2023-02-17T16:56:51.123Z,33.92
2023-02-17T16:59:22.082Z,31.45
2023-02-17T17:01:51.146Z,31.20
2023-02-17T17:04:18.487Z,30.75
2023-02-17T17:06:48.338Z,29.35
2023-02-17T17:09:17.057Z,36.83
2023-02-17T17:11:44.277Z,32.63
2023-02-17T17:14:12.234Z,33.40
2023-02-17T17:16:41.548Z,34.88
2023-02-17T17:19:11.275Z,33.28
2023-02-17T17:21:37.940Z,33.95
2023-02-17T17:24:04.719Z,122.45
2023-02-17T17:26:40.920Z,124.15
2023-02-17T17:29:10.042Z,102.75
2023-02-17T17:31:37.589Z,99.22
2023-02-17T17:34:04.462Z,97.35
2023-02-17T17:36:34.390Z,95.45
2023-02-17T17:39:03.057Z,96.47
2023-02-17T17:41:30.483Z,83.78
2023-02-17T17:43:58.022Z,78.32
2023-02-17T17:46:30.133Z,71.75
2023-02-17T17:48:59.275Z,70.18
2023-02-17T17:51:28.545Z,66.22
2023-02-17T17:53:55.781Z,64.97
2023-02-17T17:56:28.402Z,56.60
2023-02-17T17:58:56.385Z,50.90
2023-02-17T18:01:23.498Z,38.88
2023-02-17T18:03:50.842Z,87.60
2023-02-17T18:06:24.511Z,85.88
2023-02-17T18:08:53.717Z,84.88
2023-02-17T18:11:23.196Z,84.38
2023-02-17T18:13:56.269Z,84.68
2023-02-17T18:16:26.200Z,93.97
2023-02-17T18:18:53.473Z,86.03
2023-02-17T18:21:20.771Z,84.47
2023-02-17T18:23:48.528Z,83.78
2023-02-17T18:26:15.639Z,77.57
2023-02-17T18:28:42.625Z,77.03
2023-02-17T18:31:12.298Z,75.47
2023-02-17T18:33:39.385Z,79.18
2023-02-17T18:36:09.350Z,82.40
2023-02-17T18:38:36.461Z,78.70
2023-02-17T18:41:04.298Z,82.20
2023-02-17T18:43:31.126Z,82.80
2023-02-17T18:45:58.126Z,60.47
2023-02-17T18:48:25.069Z,67.93
2023-02-17T18:50:52.083Z,56.30
2023-02-17T18:53:18.957Z,55.53
2023-02-17T18:55:45.685Z,39.50
2023-02-17T18:58:13.060Z,38.35
2023-02-17T19:00:39.803Z,38.78
2023-02-17T19:03:06.540Z,39.03
2023-02-17T19:05:36.157Z,41.13
2023-02-17T19:08:02.797Z,40.17
2023-02-17T19:10:29.750Z,35.80
2023-02-17T19:12:58.247Z,43.88
2023-02-17T19:15:24.846Z,45.97
2023-02-17T19:17:55.927Z,46.30
2023-02-17T19:20:25.900Z,42.17
2023-02-17T19:22:52.658Z,41.10
2023-02-17T19:25:19.283Z,42.88
2023-02-17T19:27:46.151Z,39.85
2023-02-17T19:30:13.602Z,40.10
2023-02-17T19:32:40.346Z,35.80
2023-02-17T19:35:10.024Z,35.55
2023-02-17T19:37:38.500Z,37.33
2023-02-17T19:40:05.777Z,39.45
2023-02-17T19:42:32.626Z,35.13
2023-02-17T19:44:59.495Z,39.42
2023-02-17T19:47:26.202Z,38.95
2023-02-17T19:49:52.926Z,36.38
2023-02-17T19:52:21.089Z,37.45
2023-02-17T19:54:49.578Z,34.97
2023-02-17T19:57:19.407Z,46.13
2023-02-17T19:59:46.221Z,46.45
2023-02-17T20:02:14.560Z,43.65
2023-02-17T20:04:42.377Z,41.70
2023-02-17T20:07:09.006Z,41.15
2023-02-17T20:09:35.995Z,42.10
2023-02-17T20:12:02.878Z,42.42
2023-02-17T20:14:29.690Z,40.90
2023-02-17T20:16:56.483Z,40.97
2023-02-17T20:19:23.489Z,44.63
2023-02-17T20:21:50.185Z,46.63
2023-02-17T20:24:16.853Z,41.80
2023-02-17T20:26:51.103Z,53.33
2023-02-17T20:29:17.915Z,86.15
2023-02-17T20:31:44.970Z,86.88
2023-02-17T20:34:37.705Z,71.55
2023-02-17T20:37:04.788Z,81.57
2023-02-17T20:39:33.006Z,65.65
2023-02-17T20:42:00.447Z,75.38
2023-02-17T20:44:28.236Z,68.40
2023-02-17T20:46:56.206Z,64.43
2023-02-17T20:49:24.103Z,61.15
2023-02-17T20:51:51.213Z,57.47
2023-02-17T20:54:18.270Z,60.30
2023-02-17T20:56:46.668Z,67.43
2023-02-17T20:59:14.147Z,63.28
2023-02-17T21:01:42.320Z,53.55
2023-02-17T21:04:10.583Z,53.03
2023-02-17T21:06:43.173Z,56.00
2023-02-17T21:09:15.152Z,48.92
2023-02-17T21:11:42.216Z,48.72
2023-02-17T21:14:09.393Z,52.38
2023-02-17T21:16:36.514Z,51.17
2023-02-17T21:19:03.368Z,54.35
2023-02-17T21:21:31.182Z,55.30
2023-02-17T21:23:59.506Z,56.33
2023-02-17T21:26:26.564Z,57.85
2023-02-17T21:28:53.476Z,55.90
2023-02-17T21:31:21.359Z,59.40
2023-02-17T21:33:48.496Z,61.17
2023-02-17T21:36:17.044Z,56.83
2023-02-17T21:38:44.229Z,59.13
2023-02-17T21:41:17.401Z,63.40
2023-02-17T21:44:02.715Z,58.83
2023-02-17T21:46:30.467Z,56.90
2023-02-17T21:48:59.346Z,55.33
2023-02-17T21:51:26.831Z,57.05
2023-02-17T21:53:53.876Z,55.00
2023-02-17T21:56:22.712Z,51.50
2023-02-17T21:58:53.332Z,53.88
2023-02-17T22:01:22.707Z,53.75
2023-02-17T22:03:50.521Z,55.75
2023-02-17T22:06:35.707Z,51.90
2023-02-17T22:09:03.111Z,52.50
2023-02-17T22:11:32.502Z,50.70
2023-02-17T22:14:02.157Z,49.75
2023-02-17T22:16:34.304Z,55.30
2023-02-17T22:19:01.718Z,50.53
2023-02-17T22:21:29.227Z,51.20
2023-02-17T22:23:58.391Z,49.38
2023-02-17T22:26:26.116Z,45.55
2023-02-17T22:28:54.568Z,44.83
2023-02-17T22:31:24.261Z,45.45
2023-02-17T22:33:51.411Z,42.95
2023-02-17T22:36:22.706Z,44.03
2023-02-17T22:38:50.165Z,42.25
2023-02-17T22:41:19.542Z,48.60
2023-02-17T22:43:47.603Z,61.67
2023-02-17T22:46:16.495Z,63.40
2023-02-17T22:48:44.807Z,68.38
2023-02-17T22:51:14.841Z,67.03
2023-02-17T22:53:41.700Z,63.97
2023-02-17T22:56:08.869Z,62.47
2023-02-17T22:58:37.076Z,65.35
2023-02-17T23:01:10.135Z,58.35
2023-02-17T23:03:37.118Z,51.92
2023-02-17T23:06:07.572Z,48.05
2023-02-17T23:08:34.707Z,49.00
2023-02-17T23:11:08.750Z,50.33
2023-02-17T23:13:36.295Z,45.67
2023-02-17T23:16:03.314Z,45.78
2023-02-17T23:18:32.041Z,46.70
2023-02-17T23:20:59.681Z,46.30
2023-02-17T23:23:26.807Z,41.67
2023-02-17T23:25:55.977Z,43.45
2023-02-17T23:28:25.539Z,44.60
2023-02-17T23:30:53.174Z,42.72
2023-02-17T23:33:22.141Z,43.33
2023-02-17T23:35:48.907Z,41.58
2023-02-17T23:38:18.539Z,45.47
2023-02-17T23:40:49.382Z,41.28
2023-02-17T23:43:16.294Z,43.28
2023-02-17T23:45:43.085Z,42.55
2023-02-17T23:48:12.542Z,40.75
2023-02-17T23:50:39.358Z,40.08
2023-02-17T23:53:06.896Z,41.13
2023-02-17T23:55:33.816Z,39.78
2023-02-17T23:58:00.743Z,37.42
